createdAt,value
2019-03-16T00:00:03.189Z,1
2019-03-16T00:05:02.816Z,1
2019-03-16T00:10:03.266Z,1
2019-03-16T00:15:02.589Z,1
2019-03-16T00:20:03.023Z,1
2019-03-16T00:25:02.451Z,1
2019-03-16T00:30:02.886Z,1
2019-03-16T00:35:03.227Z,1
2019-03-16T00:40:02.648Z,1
2019-03-16T00:45:02.987Z,1
2019-03-16T00:50:02.410Z,1
2019-03-16T00:55:02.854Z,1
2019-03-16T01:00:03.311Z,1
2019-03-16T01:05:03.125Z,1
2019-03-16T01:10:02.671Z,1
2019-03-16T01:15:03.086Z,1
2019-03-16T01:20:02.505Z,1
2019-03-16T01:25:02.050Z,1
2019-03-16T01:30:02.461Z,1
2019-03-16T01:35:02.819Z,1
2019-03-16T01:40:03.256Z,1
2019-03-16T01:45:02.676Z,1
2019-03-16T01:50:03.122Z,1
2019-03-16T01:55:02.538Z,1
2019-03-16T02:00:02.868Z,1
2019-03-16T02:05:03.357Z,1
2019-03-16T02:10:02.838Z,1
2019-03-16T02:15:03.318Z,1
2019-03-16T02:20:02.640Z,1
2019-03-16T02:25:03.042Z,1
2019-03-16T02:30:02.480Z,1
2019-03-16T02:35:02.903Z,1
2019-03-16T02:40:03.387Z,1
2019-03-16T02:45:02.786Z,1
2019-03-16T02:50:03.259Z,1
2019-03-16T02:55:02.634Z,1
2019-03-16T03:00:02.972Z,1
2019-03-16T03:05:02.390Z,1
2019-03-16T03:10:02.845Z,1
2019-03-16T03:15:03.317Z,1
2019-03-16T03:20:02.697Z,1
2019-03-16T03:25:03.075Z,1
2019-03-16T03:30:02.500Z,1
2019-03-16T03:35:02.901Z,1
2019-03-16T03:40:02.422Z,1
2019-03-16T03:45:02.775Z,1
2019-03-16T03:50:03.208Z,1
2019-03-16T03:55:02.648Z,1
2019-03-16T04:00:03.131Z,1
2019-03-16T04:05:02.495Z,1
2019-03-16T04:10:02.943Z,1
2019-03-16T04:15:02.476Z,1
2019-03-16T04:20:02.909Z,1
2019-03-16T04:25:03.339Z,1
2019-03-16T04:30:02.763Z,1
2019-03-16T04:35:03.101Z,1
2019-03-16T04:40:02.518Z,1
2019-03-16T04:45:02.834Z,1
2019-03-16T04:50:03.216Z,1
2019-03-16T04:55:02.609Z,1
2019-03-16T05:00:02.973Z,1
2019-03-16T05:05:02.380Z,1
2019-03-16T05:10:02.821Z,1
2019-03-16T05:15:03.160Z,1
2019-03-16T05:20:02.587Z,2
2019-03-16T05:25:02.914Z,2
2019-03-16T05:30:02.665Z,3
2019-03-16T05:35:03.015Z,5
2019-03-16T05:40:02.413Z,8
2019-03-16T05:45:02.746Z,10
2019-03-16T05:50:03.093Z,25
2019-03-16T05:55:02.512Z,38
2019-03-16T06:00:02.849Z,46
2019-03-16T06:05:10.392Z,65
2019-03-16T06:10:02.731Z,76
2019-03-16T06:15:03.064Z,129
2019-03-16T06:20:02.475Z,250
2019-03-16T06:25:02.829Z,271
2019-03-16T06:30:03.275Z,283
2019-03-16T06:35:02.715Z,385
2019-03-16T06:40:03.241Z,303
2019-03-16T06:45:02.655Z,400
2019-03-16T06:50:03.040Z,570
2019-03-16T06:55:02.399Z,639
2019-03-16T07:00:02.738Z,775
2019-03-16T07:05:03.096Z,697
2019-03-16T07:10:01.714Z,602
2019-03-16T07:15:03.043Z,799
2019-03-16T07:20:02.464Z,775
2019-03-16T07:25:02.808Z,725
2019-03-16T07:30:03.135Z,745
2019-03-16T07:35:02.464Z,602
2019-03-16T07:40:02.906Z,571
2019-03-16T07:45:08.043Z,665
2019-03-16T07:50:03.174Z,734
2019-03-16T07:55:02.504Z,908
2019-03-16T08:00:02.940Z,881
2019-03-16T08:05:16.900Z,1000
2019-03-16T08:10:03.561Z,1000
2019-03-16T08:15:03.046Z,1000
2019-03-16T08:20:02.463Z,843
2019-03-16T08:25:02.801Z,1000
2019-03-16T08:30:03.143Z,3000
2019-03-16T08:35:02.563Z,3000
2019-03-16T08:40:02.967Z,5000
2019-03-16T08:45:03.351Z,5000
2019-03-16T08:50:02.774Z,3000
2019-03-16T08:55:03.113Z,3000
2019-03-16T09:00:02.438Z,3000
2019-03-16T09:05:02.885Z,2000
2019-03-16T09:10:03.330Z,2000
2019-03-16T09:15:02.725Z,2000
2019-03-16T09:20:03.072Z,2000
2019-03-16T09:25:02.393Z,1000
2019-03-16T09:30:02.744Z,1000
2019-03-16T09:35:03.170Z,1000
2019-03-16T09:40:02.688Z,1000
2019-03-16T09:45:02.218Z,1000
2019-03-16T09:50:02.553Z,1000
2019-03-16T09:55:02.995Z,2000
2019-03-16T10:00:02.424Z,1000
2019-03-16T10:05:02.755Z,1000
2019-03-16T10:10:03.211Z,1000
2019-03-16T10:15:02.637Z,1000
2019-03-16T10:20:03.096Z,1000
2019-03-16T10:25:02.422Z,1000
2019-03-16T10:30:02.837Z,1000
2019-03-16T10:35:03.283Z,9000
2019-03-16T10:40:02.688Z,7000
2019-03-16T10:45:03.042Z,4000
2019-03-16T10:50:02.447Z,2000
2019-03-16T10:55:02.795Z,2000
2019-03-16T11:00:03.120Z,2000
2019-03-16T11:05:02.546Z,2000
2019-03-16T11:10:02.996Z,3000
2019-03-16T11:15:02.738Z,3000
2019-03-16T11:20:03.187Z,2000
2019-03-16T11:25:02.572Z,3000
2019-03-16T11:30:02.923Z,3000
2019-03-16T11:35:03.275Z,2000
2019-03-16T11:40:02.682Z,3000
2019-03-16T11:45:03.028Z,2000
2019-03-16T11:50:02.451Z,2000
2019-03-16T11:55:02.788Z,2000
2019-03-16T12:00:03.224Z,2000
2019-03-16T12:05:02.645Z,2000
2019-03-16T12:10:03.117Z,2000
2019-03-16T12:15:02.501Z,3000
2019-03-16T12:20:02.947Z,2000
2019-03-16T12:25:03.390Z,2000
2019-03-16T12:30:02.726Z,1000
2019-03-16T12:35:02.345Z,2000
2019-03-16T12:40:02.798Z,2000
2019-03-16T12:45:03.221Z,2000
2019-03-16T12:50:02.632Z,2000
2019-03-16T12:55:02.990Z,1000
2019-03-16T13:00:02.395Z,1000
2019-03-16T13:05:02.738Z,1000
2019-03-16T13:10:03.124Z,4000
2019-03-16T13:15:02.514Z,2000
2019-03-16T13:20:02.955Z,1000
2019-03-16T13:25:02.359Z,1000
2019-03-16T13:30:02.734Z,1000
2019-03-16T13:35:03.151Z,1000
2019-03-16T13:40:02.567Z,1000
2019-03-16T13:45:02.884Z,4000
2019-03-16T13:50:03.253Z,4000
2019-03-16T13:55:02.665Z,2000
2019-03-16T14:00:11.617Z,2000
2019-03-16T14:05:02.734Z,1000
2019-03-16T14:10:02.464Z,1000
2019-03-16T14:15:02.899Z,3000
2019-03-16T14:20:02.506Z,3000
2019-03-16T14:25:02.873Z,3000
2019-03-16T14:30:03.254Z,2000
2019-03-16T14:35:02.639Z,2000
2019-03-16T14:40:03.144Z,2000
2019-03-16T14:45:02.595Z,3000
2019-03-16T14:50:03.031Z,1000
2019-03-16T14:55:02.383Z,1000
2019-03-16T15:00:02.791Z,1000
2019-03-16T15:05:03.238Z,1000
2019-03-16T15:10:02.662Z,1000
2019-03-16T15:15:03.113Z,1000
2019-03-16T15:20:02.513Z,2000
2019-03-16T15:25:02.897Z,1000
2019-03-16T15:30:02.431Z,1000
2019-03-16T15:35:05.717Z,1000
2019-03-16T15:40:02.356Z,1000
2019-03-16T15:45:02.792Z,1000
2019-03-16T15:50:03.165Z,1000
2019-03-16T15:55:02.507Z,1000
2019-03-16T16:00:03.523Z,1000
2019-03-16T16:05:02.840Z,947
2019-03-16T16:10:02.465Z,1000
2019-03-16T16:15:02.884Z,947
2019-03-16T16:20:03.220Z,922
2019-03-16T16:25:02.656Z,740
2019-03-16T16:30:02.989Z,846
2019-03-16T16:35:02.406Z,489
2019-03-16T16:40:02.827Z,473
2019-03-16T16:45:03.145Z,460
2019-03-16T16:50:02.509Z,481
2019-03-16T16:55:02.859Z,506
2019-03-16T17:00:03.189Z,369
2019-03-16T17:05:02.606Z,343
2019-03-16T17:10:03.054Z,135
2019-03-16T17:15:02.379Z,139
2019-03-16T17:20:02.809Z,75
2019-03-16T17:25:03.180Z,69
2019-03-16T17:30:02.979Z,53
2019-03-16T17:35:02.453Z,43
2019-03-16T17:40:02.882Z,39
2019-03-16T17:45:03.299Z,23
2019-03-16T17:50:02.706Z,16
2019-03-16T17:55:03.045Z,9
2019-03-16T18:00:02.466Z,7
2019-03-16T18:05:02.815Z,2
2019-03-16T18:10:03.330Z,2
2019-03-16T18:15:02.667Z,2
2019-03-16T18:20:03.017Z,1
2019-03-16T18:25:02.464Z,1
2019-03-16T18:30:02.886Z,1
2019-03-16T18:35:03.356Z,1
2019-03-16T18:40:02.842Z,1
2019-03-16T18:45:03.198Z,1
2019-03-16T18:50:02.633Z,1
2019-03-16T18:55:03.116Z,1
2019-03-16T19:00:02.422Z,1
2019-03-16T19:05:02.807Z,1
2019-03-16T19:10:02.438Z,1
2019-03-16T19:15:02.759Z,1
2019-03-16T19:20:03.105Z,1
2019-03-16T19:25:02.526Z,1
2019-03-16T19:30:02.866Z,1
2019-03-16T19:35:03.188Z,1
2019-03-16T19:40:02.564Z,1
2019-03-16T19:45:02.968Z,1
2019-03-16T19:50:02.379Z,1
2019-03-16T19:55:02.734Z,1
2019-03-16T20:00:03.068Z,1
2019-03-16T20:05:02.489Z,1
2019-03-16T20:10:02.924Z,1
2019-03-16T20:15:03.275Z,1
2019-03-16T20:20:02.689Z,1
2019-03-16T20:25:03.049Z,1
2019-03-16T20:30:02.483Z,1
2019-03-16T20:35:02.894Z,1
2019-03-16T20:40:03.285Z,1
2019-03-16T20:45:02.636Z,1
2019-03-16T20:50:02.994Z,1
2019-03-16T20:55:02.499Z,1
2019-03-16T21:00:03.075Z,1
2019-03-16T21:05:02.516Z,1
2019-03-16T21:10:02.921Z,1
2019-03-16T21:15:03.268Z,1
2019-03-16T21:20:02.675Z,1
2019-03-16T21:25:03.031Z,1
2019-03-16T21:30:02.484Z,1
2019-03-16T21:35:02.887Z,1
2019-03-16T21:40:03.337Z,1
2019-03-16T21:45:02.745Z,1
2019-03-16T21:50:03.091Z,1
2019-03-16T21:55:02.563Z,1
2019-03-16T22:00:02.096Z,1
2019-03-16T22:05:01.608Z,1
2019-03-16T22:10:03.011Z,1
2019-03-16T22:15:02.382Z,1
2019-03-16T22:20:02.782Z,1
2019-03-16T22:25:03.120Z,1
2019-03-16T22:30:02.477Z,1
2019-03-16T22:35:02.885Z,1
2019-03-16T22:40:03.408Z,1
2019-03-16T22:45:02.744Z,1
2019-03-16T22:50:03.394Z,1
2019-03-16T22:55:02.806Z,1
2019-03-16T23:00:03.143Z,1
2019-03-16T23:05:02.606Z,1
2019-03-16T23:10:03.017Z,1
2019-03-16T23:15:02.466Z,1
2019-03-16T23:20:02.870Z,1
2019-03-16T23:25:03.211Z,1
2019-03-16T23:30:02.645Z,1
2019-03-16T23:35:02.976Z,1
2019-03-16T23:40:02.395Z,1
2019-03-16T23:45:02.747Z,1
2019-03-16T23:50:03.178Z,1
2019-03-16T23:55:02.599Z,1
